createdAt,value
2023-02-27T00:02:09.270Z,1.70
2023-02-27T00:04:37.060Z,1.60
2023-02-27T00:07:07.197Z,1.60
2023-02-27T00:09:35.029Z,1.50
2023-02-27T00:12:03.365Z,1.43
2023-02-27T00:14:31.148Z,1.70
2023-02-27T00:16:58.923Z,1.80
2023-02-27T00:19:26.960Z,1.70
2023-02-27T00:21:54.746Z,1.50
2023-02-27T00:24:24.269Z,1.97
2023-02-27T00:26:52.045Z,1.83
2023-02-27T00:29:19.817Z,1.70
2023-02-27T00:31:47.695Z,1.60
2023-02-27T00:34:15.843Z,1.53
2023-02-27T00:36:43.647Z,1.97
2023-02-27T00:39:11.438Z,1.40
2023-02-27T00:41:41.012Z,1.70
2023-02-27T00:44:08.824Z,1.53
2023-02-27T00:46:36.811Z,2.00
2023-02-27T00:49:05.164Z,2.60
2023-02-27T00:51:32.979Z,2.17
2023-02-27T00:54:00.741Z,1.70
2023-02-27T00:56:28.500Z,1.93
2023-02-27T00:58:57.724Z,1.80
2023-02-27T01:01:25.906Z,1.77
2023-02-27T01:03:53.834Z,1.60
2023-02-27T01:06:21.616Z,2.13
2023-02-27T01:08:49.394Z,1.97
2023-02-27T01:11:17.224Z,1.80
2023-02-27T01:13:46.158Z,1.97
2023-02-27T01:16:15.469Z,1.70
2023-02-27T01:18:43.339Z,1.80
2023-02-27T01:21:11.157Z,1.63
2023-02-27T01:23:38.996Z,2.00
2023-02-27T01:26:06.788Z,1.83
2023-02-27T01:28:35.070Z,1.80
2023-02-27T01:31:02.887Z,1.77
2023-02-27T01:33:32.070Z,1.70
2023-02-27T01:35:59.895Z,1.80
2023-02-27T01:38:27.748Z,1.80
2023-02-27T01:40:57.275Z,2.13
2023-02-27T01:43:25.545Z,1.70
2023-02-27T01:45:53.441Z,2.00
2023-02-27T01:48:24.821Z,1.80
2023-02-27T01:50:59.286Z,1.90
2023-02-27T01:53:29.599Z,1.93
2023-02-27T01:56:01.482Z,1.97
2023-02-27T01:58:29.762Z,2.10
2023-02-27T02:00:58.355Z,1.80
2023-02-27T02:03:32.196Z,2.03
2023-02-27T02:06:04.131Z,1.80
2023-02-27T02:08:35.383Z,1.90
2023-02-27T02:11:04.048Z,2.00
2023-02-27T02:13:32.810Z,2.00
2023-02-27T02:16:15.515Z,1.97
2023-02-27T02:18:52.414Z,1.70
2023-02-27T02:22:01.915Z,2.37
2023-02-27T02:24:55.836Z,1.97
2023-02-27T02:27:33.553Z,1.80
2023-02-27T02:30:43.492Z,1.87
2023-02-27T02:33:53.718Z,1.60
2023-02-27T02:36:47.573Z,1.70
2023-02-27T02:39:56.125Z,2.10
2023-02-27T02:42:27.284Z,1.60
2023-02-27T02:45:04.217Z,2.00
2023-02-27T02:47:41.844Z,1.80
2023-02-27T02:50:13.378Z,1.90
2023-02-27T02:52:51.452Z,1.90
2023-02-27T02:55:25.705Z,1.80
2023-02-27T02:57:59.500Z,2.07
2023-02-27T03:00:32.733Z,1.90
2023-02-27T03:03:05.102Z,2.17
2023-02-27T03:05:37.017Z,2.10
2023-02-27T03:08:09.228Z,1.70
2023-02-27T03:10:43.401Z,1.90
2023-02-27T03:13:15.193Z,2.17
2023-02-27T03:15:47.804Z,2.10
2023-02-27T03:18:20.724Z,2.07
2023-02-27T03:20:52.902Z,1.90
2023-02-27T03:23:26.106Z,2.13
2023-02-27T03:25:58.150Z,2.43
2023-02-27T03:28:30.104Z,1.83
2023-02-27T03:31:02.183Z,1.90
2023-02-27T03:33:35.258Z,1.80
2023-02-27T03:36:10.561Z,1.90
2023-02-27T03:38:43.293Z,1.83
2023-02-27T03:41:25.492Z,1.80
2023-02-27T03:44:00.424Z,2.20
2023-02-27T03:46:29.535Z,1.93
2023-02-27T03:48:57.366Z,2.50
2023-02-27T03:51:28.045Z,2.27
2023-02-27T03:54:01.117Z,1.90
2023-02-27T03:56:33.606Z,1.90
2023-02-27T03:59:01.520Z,2.27
2023-02-27T04:01:30.093Z,1.90
2023-02-27T04:04:02.269Z,1.70
2023-02-27T04:07:00.193Z,1.87
2023-02-27T04:09:43.193Z,2.00
2023-02-27T04:12:30.829Z,1.90
2023-02-27T04:15:09.012Z,2.00
2023-02-27T04:17:47.592Z,1.70
2023-02-27T04:20:28.740Z,2.03
2023-02-27T04:23:01.496Z,1.93
2023-02-27T04:25:40.333Z,2.33
2023-02-27T04:28:17.342Z,1.90
2023-02-27T04:30:58.844Z,2.07
2023-02-27T04:33:34.676Z,1.90
2023-02-27T04:36:07.797Z,1.80
2023-02-27T04:38:40.662Z,2.13
2023-02-27T04:41:12.985Z,2.10
2023-02-27T04:43:43.597Z,1.77
2023-02-27T04:46:15.707Z,1.83
2023-02-27T04:48:51.512Z,2.10
2023-02-27T04:51:22.777Z,1.57
2023-02-27T04:53:55.663Z,1.70
2023-02-27T04:56:29.660Z,1.90
2023-02-27T04:59:02.538Z,1.90
2023-02-27T05:01:37.100Z,1.80
2023-02-27T05:04:06.319Z,1.80
2023-02-27T05:06:37.999Z,2.10
2023-02-27T05:09:13.342Z,1.80
2023-02-27T05:11:46.949Z,2.20
2023-02-27T05:14:20.023Z,2.07
2023-02-27T05:16:52.317Z,1.70
2023-02-27T05:19:21.597Z,2.40
2023-02-27T05:21:55.169Z,1.97
2023-02-27T05:24:31.280Z,2.20
2023-02-27T05:27:15.394Z,1.87
2023-02-27T05:29:50.219Z,1.87
2023-02-27T05:32:30.867Z,2.17
2023-02-27T05:35:07.734Z,1.80
2023-02-27T05:37:40.911Z,2.17
2023-02-27T05:40:12.479Z,1.90
2023-02-27T05:42:45.491Z,2.00
2023-02-27T05:45:20.831Z,2.00
2023-02-27T05:47:55.678Z,2.30
2023-02-27T05:50:27.806Z,2.07
2023-02-27T05:52:58.495Z,2.23
2023-02-27T05:55:32.252Z,1.90
2023-02-27T05:58:05.720Z,2.43
2023-02-27T06:00:39.006Z,2.00
2023-02-27T06:03:07.216Z,2.00
2023-02-27T06:05:36.636Z,2.23
2023-02-27T06:08:04.535Z,2.23
2023-02-27T06:10:32.828Z,2.20
2023-02-27T06:13:00.688Z,2.30
2023-02-27T06:15:28.633Z,2.37
2023-02-27T06:17:57.901Z,2.33
2023-02-27T06:20:25.730Z,2.20
2023-02-27T06:22:53.607Z,2.50
2023-02-27T06:25:22.073Z,2.37
2023-02-27T06:27:50.167Z,2.27
2023-02-27T06:30:18.746Z,2.17
2023-02-27T06:32:46.607Z,2.20
2023-02-27T06:35:15.936Z,2.13
2023-02-27T06:37:44.004Z,2.30
2023-02-27T06:40:13.301Z,2.53
2023-02-27T06:42:41.517Z,2.03
2023-02-27T06:45:10.858Z,2.00
2023-02-27T06:47:39.439Z,2.03
2023-02-27T06:50:08.381Z,2.43
2023-02-27T06:52:38.017Z,2.30
2023-02-27T06:55:06.617Z,2.47
2023-02-27T06:57:34.886Z,2.83
2023-02-27T07:00:04.038Z,2.70
2023-02-27T07:02:32.111Z,2.80
2023-02-27T07:04:59.921Z,2.20
2023-02-27T07:07:32.734Z,1.83
2023-02-27T07:10:06.450Z,2.33
2023-02-27T07:12:34.411Z,2.63
2023-02-27T07:15:02.296Z,2.30
2023-02-27T07:17:30.126Z,2.23
2023-02-27T07:19:57.942Z,2.80
2023-02-27T07:22:25.823Z,2.73
2023-02-27T07:24:53.619Z,2.63
2023-02-27T07:27:22.815Z,2.83
2023-02-27T07:29:50.628Z,2.20
2023-02-27T07:32:18.498Z,2.83
2023-02-27T07:34:46.457Z,2.30
2023-02-27T07:37:14.600Z,2.17
2023-02-27T07:39:42.515Z,2.20
2023-02-27T07:42:10.414Z,2.30
2023-02-27T07:44:40.591Z,2.90
2023-02-27T07:47:08.428Z,2.70
2023-02-27T07:49:36.237Z,2.23
2023-02-27T07:52:04.371Z,2.50
2023-02-27T07:54:34.500Z,2.43
2023-02-27T07:57:03.561Z,2.80
2023-02-27T07:59:31.367Z,2.27
2023-02-27T08:02:00.517Z,2.53
2023-02-27T08:04:28.360Z,2.83
2023-02-27T08:06:56.229Z,3.20
2023-02-27T08:09:24.008Z,2.40
2023-02-27T08:11:51.787Z,2.40
2023-02-27T08:14:19.594Z,2.53
2023-02-27T08:16:47.394Z,2.90
2023-02-27T08:19:17.040Z,2.80
2023-02-27T08:21:44.863Z,4.23
2023-02-27T08:24:12.658Z,2.77
2023-02-27T08:26:40.493Z,3.40
2023-02-27T08:29:08.343Z,2.60
2023-02-27T08:31:36.308Z,2.70
2023-02-27T08:34:10.401Z,2.50
2023-02-27T08:36:40.442Z,3.07
2023-02-27T08:39:09.402Z,2.60
2023-02-27T08:41:37.536Z,2.50
2023-02-27T08:44:05.946Z,2.90
2023-02-27T08:46:33.926Z,2.73
2023-02-27T08:49:01.741Z,2.60
2023-02-27T08:51:30.088Z,2.37
2023-02-27T08:53:59.742Z,2.40
2023-02-27T08:56:28.335Z,2.00
2023-02-27T08:58:56.968Z,3.30
2023-02-27T09:01:28.475Z,2.67
2023-02-27T09:03:56.632Z,2.90
2023-02-27T09:06:26.244Z,2.70
2023-02-27T09:08:54.664Z,2.63
2023-02-27T09:11:24.028Z,2.90
2023-02-27T09:13:52.766Z,2.70
2023-02-27T09:16:21.148Z,2.97
2023-02-27T09:18:49.964Z,2.37
2023-02-27T09:21:18.239Z,2.70
2023-02-27T09:23:46.093Z,2.47
2023-02-27T09:26:14.198Z,2.30
2023-02-27T09:28:43.368Z,3.20
2023-02-27T09:31:12.260Z,2.63
2023-02-27T09:33:40.651Z,2.57
2023-02-27T09:36:09.900Z,2.90
2023-02-27T09:38:41.218Z,2.27
2023-02-27T09:41:27.792Z,2.60
2023-02-27T09:43:57.560Z,2.30
2023-02-27T09:46:26.756Z,2.30
2023-02-27T09:48:58.454Z,2.70
2023-02-27T09:51:28.294Z,2.30
2023-02-27T09:54:00.392Z,2.83
2023-02-27T09:56:31.836Z,2.50
2023-02-27T09:59:06.779Z,2.67
2023-02-27T10:01:38.591Z,2.90
2023-02-27T10:04:34.632Z,2.90
2023-02-27T10:07:13.493Z,2.77
2023-02-27T10:09:51.128Z,2.90
2023-02-27T10:12:33.367Z,2.90
2023-02-27T10:15:09.591Z,2.83
2023-02-27T10:17:42.520Z,2.40
2023-02-27T10:20:23.539Z,2.80
2023-02-27T10:22:53.230Z,2.93
2023-02-27T10:25:31.346Z,2.63
2023-02-27T10:28:10.014Z,2.57
2023-02-27T10:30:39.796Z,2.27
2023-02-27T10:33:13.961Z,2.47
2023-02-27T10:35:45.559Z,2.67
2023-02-27T10:38:17.781Z,2.93
2023-02-27T10:40:47.713Z,2.50
2023-02-27T10:43:19.498Z,2.60
2023-02-27T10:45:49.052Z,2.73
2023-02-27T10:48:17.875Z,2.70
2023-02-27T10:50:46.970Z,2.80
2023-02-27T10:53:21.919Z,2.73
2023-02-27T10:55:59.846Z,3.23
2023-02-27T10:58:34.484Z,3.00
2023-02-27T11:01:06.027Z,2.20
2023-02-27T11:03:37.027Z,2.80
2023-02-27T11:06:09.734Z,2.60
2023-02-27T11:08:38.001Z,2.70
2023-02-27T11:11:09.356Z,2.60
2023-02-27T11:13:39.451Z,2.93
2023-02-27T11:16:12.248Z,2.57
2023-02-27T11:18:41.443Z,2.60
2023-02-27T11:21:16.947Z,3.03
2023-02-27T11:23:53.159Z,2.83
2023-02-27T11:26:25.650Z,2.80
2023-02-27T11:29:23.608Z,2.70
2023-02-27T11:31:58.256Z,2.50
2023-02-27T11:34:29.905Z,2.60
2023-02-27T11:37:01.602Z,2.80
2023-02-27T11:39:38.606Z,2.50
2023-02-27T11:42:17.765Z,2.40
2023-02-27T11:44:56.005Z,2.70
2023-02-27T11:47:31.186Z,4.87
2023-02-27T11:50:32.745Z,3.50
2023-02-27T11:53:15.587Z,3.33
2023-02-27T11:55:45.112Z,2.43
2023-02-27T11:58:16.146Z,2.20
2023-02-27T12:00:49.988Z,2.13
2023-02-27T12:03:26.153Z,2.30
2023-02-27T12:05:57.673Z,2.27
2023-02-27T12:08:34.770Z,2.13
2023-02-27T12:11:14.108Z,2.00
2023-02-27T12:13:45.818Z,2.10
2023-02-27T12:16:22.139Z,2.37
2023-02-27T12:18:54.588Z,2.63
2023-02-27T12:21:25.374Z,2.50
2023-02-27T12:23:57.939Z,2.27
2023-02-27T12:26:31.173Z,2.47
2023-02-27T12:29:04.958Z,2.17
2023-02-27T12:31:47.635Z,2.23
2023-02-27T12:34:29.431Z,2.93
2023-02-27T12:37:03.030Z,3.07
2023-02-27T12:39:32.096Z,2.40
2023-02-27T12:42:21.320Z,2.90
2023-02-27T12:45:14.389Z,2.57
2023-02-27T12:47:47.638Z,2.63
2023-02-27T12:50:19.428Z,2.50
2023-02-27T12:52:58.825Z,2.73
2023-02-27T12:55:29.660Z,2.70
2023-02-27T12:58:27.124Z,2.67
2023-02-27T13:01:00.778Z,2.77
2023-02-27T13:03:35.270Z,2.40
2023-02-27T13:06:14.259Z,2.47
2023-02-27T13:08:57.268Z,3.07
2023-02-27T13:11:35.214Z,2.30
2023-02-27T13:14:08.513Z,3.00
2023-02-27T13:16:40.969Z,2.40
2023-02-27T13:19:16.282Z,2.50
2023-02-27T13:21:53.019Z,2.80
2023-02-27T13:24:27.195Z,2.70
2023-02-27T13:27:02.443Z,2.57
2023-02-27T13:29:37.492Z,2.70
2023-02-27T13:32:15.503Z,1.90
2023-02-27T13:34:48.124Z,2.67
2023-02-27T13:37:17.348Z,2.40
2023-02-27T13:39:56.006Z,2.50
2023-02-27T13:42:57.279Z,2.30
2023-02-27T13:45:54.491Z,3.40
2023-02-27T13:48:56.266Z,2.70
2023-02-27T13:51:46.638Z,2.40
2023-02-27T13:54:21.205Z,2.80
2023-02-27T13:56:51.321Z,2.87
2023-02-27T13:59:23.710Z,3.23
2023-02-27T14:01:57.241Z,2.70
2023-02-27T14:04:28.171Z,2.90
2023-02-27T14:07:00.360Z,2.60
2023-02-27T14:09:36.152Z,2.70
2023-02-27T14:12:06.653Z,2.43
2023-02-27T14:14:46.573Z,2.90
2023-02-27T14:17:15.600Z,2.80
2023-02-27T14:20:00.625Z,2.80
2023-02-27T14:23:07.164Z,3.13
2023-02-27T14:25:40.249Z,2.70
2023-02-27T14:28:19.319Z,2.53
2023-02-27T14:30:54.079Z,2.30
2023-02-27T14:33:39.004Z,2.50
2023-02-27T14:36:10.559Z,2.80
2023-02-27T14:38:39.454Z,3.00
2023-02-27T14:41:38.067Z,3.30
2023-02-27T14:44:06.291Z,2.87
2023-02-27T14:46:38.340Z,2.50
2023-02-27T14:49:08.474Z,2.93
2023-02-27T14:51:38.850Z,3.37
2023-02-27T14:54:13.690Z,3.00
2023-02-27T14:56:43.467Z,3.23
2023-02-27T14:59:25.084Z,3.00
2023-02-27T15:01:55.644Z,3.20
2023-02-27T15:04:27.235Z,3.07
2023-02-27T15:06:57.078Z,2.83
2023-02-27T15:09:28.270Z,2.33
2023-02-27T15:12:04.042Z,3.07
2023-02-27T15:14:36.869Z,3.27
2023-02-27T15:17:05.673Z,3.00
2023-02-27T15:19:33.543Z,3.03
2023-02-27T15:22:05.502Z,2.83
2023-02-27T15:24:49.191Z,2.90
2023-02-27T15:27:23.273Z,2.80
2023-02-27T15:29:53.618Z,2.90
2023-02-27T15:32:28.414Z,2.47
2023-02-27T15:34:57.253Z,3.13
2023-02-27T15:37:28.204Z,3.07
2023-02-27T15:39:56.824Z,2.93
2023-02-27T15:42:28.659Z,2.77
2023-02-27T15:44:58.182Z,2.43
2023-02-27T15:47:27.698Z,3.00
2023-02-27T15:49:59.260Z,2.73
2023-02-27T15:52:28.532Z,2.90
2023-02-27T15:55:06.872Z,2.30
2023-02-27T15:57:36.032Z,2.90
2023-02-27T16:00:06.825Z,2.47
2023-02-27T16:02:41.148Z,2.60
2023-02-27T16:05:16.961Z,2.80
2023-02-27T16:07:45.557Z,2.57
2023-02-27T16:10:21.706Z,3.07
2023-02-27T16:12:51.225Z,2.70
2023-02-27T16:15:30.899Z,2.60
2023-02-27T16:18:06.672Z,2.97
2023-02-27T16:20:42.634Z,2.60
2023-02-27T16:23:21.359Z,3.33
2023-02-27T16:26:04.943Z,2.90
2023-02-27T16:28:44.077Z,2.70
2023-02-27T16:31:27.078Z,3.20
2023-02-27T16:33:56.313Z,2.83
2023-02-27T16:36:26.374Z,2.50
2023-02-27T16:38:54.834Z,3.70
2023-02-27T16:41:25.375Z,4.03
2023-02-27T16:43:55.635Z,2.57
2023-02-27T16:46:23.741Z,3.33
2023-02-27T16:48:54.187Z,2.53
2023-02-27T16:51:24.108Z,3.30
2023-02-27T16:53:52.789Z,3.10
2023-02-27T16:56:35.815Z,3.07
2023-02-27T16:59:06.563Z,2.70
2023-02-27T17:01:34.597Z,2.30
2023-02-27T17:04:04.005Z,2.70
2023-02-27T17:06:36.385Z,2.90
2023-02-27T17:09:04.746Z,2.27
2023-02-27T17:11:32.635Z,2.90
2023-02-27T17:14:00.422Z,2.80
2023-02-27T17:16:30.032Z,3.00
2023-02-27T17:18:58.156Z,2.90
2023-02-27T17:21:27.220Z,2.50
2023-02-27T17:23:54.994Z,2.87
2023-02-27T17:26:22.858Z,2.43
2023-02-27T17:28:50.634Z,2.60
2023-02-27T17:31:22.748Z,3.27
2023-02-27T17:33:52.387Z,3.07
2023-02-27T17:36:20.902Z,2.47
2023-02-27T17:38:49.037Z,2.87
2023-02-27T17:41:18.004Z,2.80
2023-02-27T17:43:50.353Z,2.93
2023-02-27T17:46:18.375Z,2.90
2023-02-27T17:48:46.311Z,2.40
2023-02-27T17:51:17.112Z,2.77
2023-02-27T17:53:45.670Z,2.83
2023-02-27T17:56:14.433Z,3.23
2023-02-27T17:58:45.320Z,2.30
2023-02-27T18:01:15.459Z,3.20
2023-02-27T18:03:44.117Z,2.70
2023-02-27T18:06:11.928Z,2.60
2023-02-27T18:08:41.078Z,2.40
2023-02-27T18:11:10.850Z,2.53
2023-02-27T18:13:38.816Z,3.17
2023-02-27T18:16:07.574Z,2.90
2023-02-27T18:18:36.411Z,2.77
2023-02-27T18:21:06.353Z,2.90
2023-02-27T18:23:34.158Z,2.83
2023-02-27T18:26:03.278Z,2.47
2023-02-27T18:28:31.203Z,2.97
2023-02-27T18:30:59.348Z,2.50
2023-02-27T18:33:27.451Z,2.30
2023-02-27T18:35:55.473Z,2.80
2023-02-27T18:38:23.310Z,2.53
2023-02-27T18:40:51.062Z,2.70
2023-02-27T18:43:20.177Z,2.63
2023-02-27T18:45:48.089Z,2.80
2023-02-27T18:48:15.959Z,2.80
2023-02-27T18:50:43.764Z,3.03
2023-02-27T18:53:11.572Z,3.03
2023-02-27T18:55:39.334Z,2.57
2023-02-27T18:58:07.275Z,2.63
2023-02-27T19:00:36.499Z,2.90
2023-02-27T19:03:06.170Z,2.63
2023-02-27T19:05:34.341Z,3.03
2023-02-27T19:08:02.101Z,3.23
2023-02-27T19:10:32.514Z,3.50
2023-02-27T19:13:00.297Z,2.80
2023-02-27T19:15:28.695Z,3.00
2023-02-27T19:17:57.939Z,2.80
2023-02-27T19:20:26.145Z,2.40
2023-02-27T19:22:54.211Z,3.10
2023-02-27T19:25:22.084Z,3.00
2023-02-27T19:27:53.374Z,3.00
2023-02-27T19:30:21.558Z,3.00
2023-02-27T19:32:49.451Z,3.33
2023-02-27T19:35:19.077Z,3.70
2023-02-27T19:37:48.723Z,3.47
2023-02-27T19:40:17.236Z,3.13
2023-02-27T19:42:45.637Z,3.43
2023-02-27T19:45:13.536Z,3.03
2023-02-27T19:47:41.356Z,3.80
2023-02-27T19:50:10.682Z,3.20
2023-02-27T19:52:40.300Z,2.90
2023-02-27T19:55:08.798Z,2.87
2023-02-27T19:57:37.652Z,2.53
2023-02-27T20:00:07.587Z,3.27
2023-02-27T20:02:35.546Z,3.40
2023-02-27T20:05:03.557Z,3.10
2023-02-27T20:07:32.048Z,3.23
2023-02-27T20:10:01.180Z,3.00
2023-02-27T20:12:28.926Z,2.87
2023-02-27T20:14:56.759Z,2.67
2023-02-27T20:17:24.552Z,2.87
2023-02-27T20:19:52.303Z,2.70
2023-02-27T20:22:20.069Z,3.30
2023-02-27T20:24:47.812Z,3.33
2023-02-27T20:27:16.914Z,3.37
2023-02-27T20:29:44.818Z,3.13
2023-02-27T20:32:12.726Z,2.70
2023-02-27T20:34:40.518Z,3.10
2023-02-27T20:37:08.291Z,3.33
2023-02-27T20:39:36.064Z,3.33
2023-02-27T20:42:04.415Z,2.70
2023-02-27T20:44:33.538Z,3.37
2023-02-27T20:47:01.372Z,2.87
2023-02-27T20:49:29.189Z,3.63
2023-02-27T20:51:57.703Z,2.80
2023-02-27T20:54:25.837Z,2.67
2023-02-27T20:56:54.361Z,3.10
2023-02-27T20:59:25.095Z,3.27
2023-02-27T21:01:55.422Z,3.00
2023-02-27T21:04:25.906Z,3.40
2023-02-27T21:06:54.644Z,3.07
2023-02-27T21:09:22.425Z,2.87
2023-02-27T21:11:50.270Z,2.80
2023-02-27T21:14:18.070Z,2.73
2023-02-27T21:16:45.860Z,2.87
2023-02-27T21:19:14.970Z,3.30
2023-02-27T21:21:42.747Z,2.80
2023-02-27T21:24:10.561Z,3.20
2023-02-27T21:26:39.921Z,3.17
2023-02-27T21:29:10.605Z,2.70
2023-02-27T21:31:39.607Z,2.77
2023-02-27T21:34:09.775Z,3.63
2023-02-27T21:36:42.139Z,3.00
2023-02-27T21:39:12.929Z,3.17
2023-02-27T21:41:40.989Z,3.53
2023-02-27T21:44:10.256Z,3.77
2023-02-27T21:46:43.550Z,3.40
2023-02-27T21:49:16.793Z,3.20
2023-02-27T21:51:46.544Z,3.60
2023-02-27T21:54:16.029Z,3.00
2023-02-27T21:56:45.564Z,3.70
2023-02-27T21:59:13.856Z,3.17
2023-02-27T22:01:41.836Z,3.13
2023-02-27T22:04:09.708Z,2.90
2023-02-27T22:06:37.497Z,3.50
2023-02-27T22:09:07.898Z,2.90
2023-02-27T22:11:36.204Z,4.20
2023-02-27T22:14:06.225Z,3.30
2023-02-27T22:16:34.385Z,3.27
2023-02-27T22:19:06.148Z,3.50
2023-02-27T22:21:34.023Z,3.50
2023-02-27T22:24:01.880Z,3.60
2023-02-27T22:26:32.360Z,2.80
2023-02-27T22:29:00.614Z,3.40
2023-02-27T22:31:30.508Z,3.37
2023-02-27T22:34:02.170Z,3.50
2023-02-27T22:36:31.596Z,3.83
2023-02-27T22:39:00.245Z,3.57
2023-02-27T22:41:31.718Z,3.27
2023-02-27T22:44:00.949Z,3.77
2023-02-27T22:46:30.422Z,3.90
2023-02-27T22:48:59.588Z,3.87
2023-02-27T22:51:29.142Z,3.70
2023-02-27T22:53:59.767Z,3.50
2023-02-27T22:56:28.650Z,3.40
2023-02-27T22:58:57.913Z,3.53
2023-02-27T23:01:28.393Z,3.53
2023-02-27T23:04:00.075Z,3.57
2023-02-27T23:06:30.820Z,3.70
2023-02-27T23:08:59.373Z,3.67
2023-02-27T23:11:27.791Z,3.27
2023-02-27T23:13:57.602Z,3.70
2023-02-27T23:16:25.835Z,3.60
2023-02-27T23:18:56.218Z,3.60
2023-02-27T23:21:26.549Z,3.60
2023-02-27T23:23:54.707Z,3.60
2023-02-27T23:26:22.880Z,3.90
2023-02-27T23:28:50.757Z,3.30
2023-02-27T23:31:20.195Z,3.60
2023-02-27T23:33:48.041Z,3.67
2023-02-27T23:36:16.326Z,3.83
2023-02-27T23:38:46.540Z,3.93
2023-02-27T23:41:17.332Z,3.70
2023-02-27T23:44:02.891Z,3.37
2023-02-27T23:46:32.240Z,3.50
2023-02-27T23:49:00.796Z,3.80
2023-02-27T23:51:30.664Z,4.10
2023-02-27T23:53:58.958Z,3.70
2023-02-27T23:56:28.430Z,3.30
2023-02-27T23:58:58.159Z,3.77
